Terminal Aerodrome Forecast
Issued by NWS

Home | Current Version | Previous Version | Text Only | Print | Product List | Glossary On
Versions: 1 2 3 4 5 6 7 8 9 10 11 12 13 14 15 16 17 18 19 20 21 22
000
FTUS42 KGSP 180500
TAFAND
TAF
KAND 180540Z 1806/1906 00000KT P6SM BKN050
     FM180900 05003KT 5SM BR BKN100
      TEMPO 1810/1812 BKN007 BKN100
     FM181200 06003KT 4SM BR BKN007
     FM181400 06004KT P6SM SCT045=

USA.gov is the U.S. government's official web portal to all federal, state and local government web resources and services.